sensor_id;sensor_type;location;lat;lon;timestamp;pressure;altitude;pressure_sealevel;temperature;humidity
78755;BME280;68073;54.176;-4.554;2023-04-06T00:00:32;100898.34;;;9.27;62.08
78755;BME280;68073;54.176;-4.554;2023-04-06T00:02:57;100894.28;;;9.08;61.90
78755;BME280;68073;54.176;-4.554;2023-04-06T00:05:22;100893.60;;;9.32;61.25
78755;BME280;68073;54.176;-4.554;2023-04-06T00:07:47;100890.18;;;9.12;60.78
78755;BME280;68073;54.176;-4.554;2023-04-06T00:10:13;100898.00;;;9.29;59.48
78755;BME280;68073;54.176;-4.554;2023-04-06T00:12:37;100907.23;;;9.55;59.04
78755;BME280;68073;54.176;-4.554;2023-04-06T00:15:03;100928.15;;;8.79;59.86
78755;BME280;68073;54.176;-4.554;2023-04-06T00:17:27;100938.72;;;8.91;60.25
78755;BME280;68073;54.176;-4.554;2023-04-06T00:19:52;100934.49;;;8.79;60.89
78755;BME280;68073;54.176;-4.554;2023-04-06T00:22:17;100923.23;;;8.50;60.48
78755;BME280;68073;54.176;-4.554;2023-04-06T00:24:42;100918.59;;;9.06;60.06
78755;BME280;68073;54.176;-4.554;2023-04-06T00:27:07;100910.81;;;9.05;58.57
78755;BME280;68073;54.176;-4.554;2023-04-06T00:29:32;100907.76;;;8.97;59.28
78755;BME280;68073;54.176;-4.554;2023-04-06T00:31:57;100902.51;;;9.48;58.72
78755;BME280;68073;54.176;-4.554;2023-04-06T00:34:23;100891.45;;;9.28;58.67
78755;BME280;68073;54.176;-4.554;2023-04-06T00:36:48;100888.40;;;9.59;57.88
78755;BME280;68073;54.176;-4.554;2023-04-06T00:39:13;100881.57;;;9.53;57.48
78755;BME280;68073;54.176;-4.554;2023-04-06T00:41:39;100884.66;;;9.31;58.12
78755;BME280;68073;54.176;-4.554;2023-04-06T00:44:03;100883.88;;;8.91;58.72
78755;BME280;68073;54.176;-4.554;2023-04-06T00:46:28;100883.00;;;9.03;59.00
78755;BME280;68073;54.176;-4.554;2023-04-06T00:48:53;100882.06;;;9.16;58.97
78755;BME280;68073;54.176;-4.554;2023-04-06T00:51:18;100876.16;;;9.27;58.75
78755;BME280;68073;54.176;-4.554;2023-04-06T00:53:43;100871.94;;;9.04;57.92
78755;BME280;68073;54.176;-4.554;2023-04-06T00:56:09;100876.70;;;9.03;57.52
78755;BME280;68073;54.176;-4.554;2023-04-06T00:58:33;100870.57;;;9.12;58.19
78755;BME280;68073;54.176;-4.554;2023-04-06T01:00:58;100865.91;;;8.97;58.36
78755;BME280;68073;54.176;-4.554;2023-04-06T01:03:23;100854.85;;;8.94;57.97
78755;BME280;68073;54.176;-4.554;2023-04-06T01:05:48;100855.89;;;9.12;58.00
78755;BME280;68073;54.176;-4.554;2023-04-06T01:08:13;100850.27;;;8.94;57.89
78755;BME280;68073;54.176;-4.554;2023-04-06T01:10:38;100856.97;;;8.95;57.40
78755;BME280;68073;54.176;-4.554;2023-04-06T01:13:03;100857.66;;;9.41;56.77
78755;BME280;68073;54.176;-4.554;2023-04-06T01:15:29;100863.15;;;8.99;57.30
78755;BME280;68073;54.176;-4.554;2023-04-06T01:17:53;100864.01;;;9.47;56.77
78755;BME280;68073;54.176;-4.554;2023-04-06T01:20:19;100860.74;;;9.22;56.79
78755;BME280;68073;54.176;-4.554;2023-04-06T01:22:44;100856.09;;;9.07;56.89
78755;BME280;68073;54.176;-4.554;2023-04-06T01:25:10;100855.24;;;9.41;56.50
78755;BME280;68073;54.176;-4.554;2023-04-06T01:27:34;100850.80;;;9.24;56.27
78755;BME280;68073;54.176;-4.554;2023-04-06T01:29:59;100845.38;;;9.32;56.24
78755;BME280;68073;54.176;-4.554;2023-04-06T01:32:24;100842.47;;;9.36;56.24
78755;BME280;68073;54.176;-4.554;2023-04-06T01:34:49;100840.15;;;9.31;56.82
78755;BME280;68073;54.176;-4.554;2023-04-06T01:37:14;100837.32;;;9.25;56.27
78755;BME280;68073;54.176;-4.554;2023-04-06T01:39:39;100835.06;;;9.53;56.75
78755;BME280;68073;54.176;-4.554;2023-04-06T01:42:04;100837.03;;;9.61;56.36
78755;BME280;68073;54.176;-4.554;2023-04-06T01:44:29;100833.95;;;9.70;56.21
78755;BME280;68073;54.176;-4.554;2023-04-06T01:46:54;100828.19;;;9.31;56.91
78755;BME280;68073;54.176;-4.554;2023-04-06T01:49:19;100823.60;;;8.93;56.85
78755;BME280;68073;54.176;-4.554;2023-04-06T01:51:44;100817.68;;;9.30;56.64
78755;BME280;68073;54.176;-4.554;2023-04-06T01:54:09;100823.33;;;9.12;56.28
78755;BME280;68073;54.176;-4.554;2023-04-06T01:56:34;100829.37;;;9.23;57.05
78755;BME280;68073;54.176;-4.554;2023-04-06T01:58:59;100831.34;;;8.76;57.11
78755;BME280;68073;54.176;-4.554;2023-04-06T02:01:24;100833.99;;;9.19;57.31
78755;BME280;68073;54.176;-4.554;2023-04-06T02:03:49;100832.95;;;9.20;56.85
78755;BME280;68073;54.176;-4.554;2023-04-06T02:06:14;100827.39;;;8.76;57.18
78755;BME280;68073;54.176;-4.554;2023-04-06T02:08:40;100824.46;;;9.17;56.81
78755;BME280;68073;54.176;-4.554;2023-04-06T02:11:05;100818.61;;;8.67;57.75
78755;BME280;68073;54.176;-4.554;2023-04-06T02:13:30;100810.68;;;8.98;57.01
78755;BME280;68073;54.176;-4.554;2023-04-06T02:15:55;100808.30;;;9.16;57.23
78755;BME280;68073;54.176;-4.554;2023-04-06T02:18:20;100802.13;;;9.14;57.15
78755;BME280;68073;54.176;-4.554;2023-04-06T02:20:45;100797.82;;;9.17;57.30
78755;BME280;68073;54.176;-4.554;2023-04-06T02:23:10;100793.43;;;9.03;56.96
78755;BME280;68073;54.176;-4.554;2023-04-06T02:25:35;100799.52;;;9.21;56.73
78755;BME280;68073;54.176;-4.554;2023-04-06T02:28:00;100797.12;;;9.12;56.85
78755;BME280;68073;54.176;-4.554;2023-04-06T02:30:25;100797.35;;;9.21;56.52
78755;BME280;68073;54.176;-4.554;2023-04-06T02:32:50;100799.62;;;9.06;56.37
78755;BME280;68073;54.176;-4.554;2023-04-06T02:35:15;100806.55;;;9.18;54.89
78755;BME280;68073;54.176;-4.554;2023-04-06T02:37:40;100808.54;;;8.61;56.16
78755;BME280;68073;54.176;-4.554;2023-04-06T02:40:06;100810.27;;;8.78;56.04
78755;BME280;68073;54.176;-4.554;2023-04-06T02:42:30;100807.62;;;8.50;56.50
78755;BME280;68073;54.176;-4.554;2023-04-06T02:44:55;100807.45;;;8.66;56.60
78755;BME280;68073;54.176;-4.554;2023-04-06T02:47:20;100802.10;;;8.58;56.19
78755;BME280;68073;54.176;-4.554;2023-04-06T02:49:46;100802.96;;;8.88;56.27
78755;BME280;68073;54.176;-4.554;2023-04-06T02:52:10;100801.75;;;9.01;56.12
78755;BME280;68073;54.176;-4.554;2023-04-06T02:54:35;100803.35;;;9.21;55.83
78755;BME280;68073;54.176;-4.554;2023-04-06T02:57:00;100801.85;;;8.80;56.14
78755;BME280;68073;54.176;-4.554;2023-04-06T02:59:26;100803.49;;;9.00;55.85
78755;BME280;68073;54.176;-4.554;2023-04-06T03:01:51;100794.69;;;8.58;56.77
78755;BME280;68073;54.176;-4.554;2023-04-06T03:04:16;100789.49;;;8.70;56.58
78755;BME280;68073;54.176;-4.554;2023-04-06T03:06:41;100786.67;;;8.41;57.08
78755;BME280;68073;54.176;-4.554;2023-04-06T03:09:07;100788.72;;;8.68;56.64
78755;BME280;68073;54.176;-4.554;2023-04-06T03:11:31;100796.77;;;8.36;57.03
78755;BME280;68073;54.176;-4.554;2023-04-06T03:13:57;100787.67;;;8.70;56.69
78755;BME280;68073;54.176;-4.554;2023-04-06T03:16:22;100794.69;;;8.73;56.40
78755;BME280;68073;54.176;-4.554;2023-04-06T03:18:47;100798.16;;;8.87;55.80
78755;BME280;68073;54.176;-4.554;2023-04-06T03:21:12;100794.20;;;8.60;56.26
78755;BME280;68073;54.176;-4.554;2023-04-06T03:23:37;100797.12;;;8.72;55.89
78755;BME280;68073;54.176;-4.554;2023-04-06T03:26:02;100801.33;;;8.67;55.64
78755;BME280;68073;54.176;-4.554;2023-04-06T03:28:27;100801.86;;;8.55;56.09
78755;BME280;68073;54.176;-4.554;2023-04-06T03:30:52;100804.75;;;8.63;56.02
78755;BME280;68073;54.176;-4.554;2023-04-06T03:33:17;100810.29;;;8.47;56.09
78755;BME280;68073;54.176;-4.554;2023-04-06T03:35:42;100805.97;;;8.76;55.58
78755;BME280;68073;54.176;-4.554;2023-04-06T03:38:07;100799.28;;;8.56;55.86
78755;BME280;68073;54.176;-4.554;2023-04-06T03:40:33;100796.06;;;8.46;55.70
78755;BME280;68073;54.176;-4.554;2023-04-06T03:42:58;100796.51;;;8.18;55.94
78755;BME280;68073;54.176;-4.554;2023-04-06T03:45:23;100792.22;;;8.74;55.37
78755;BME280;68073;54.176;-4.554;2023-04-06T03:47:48;100785.66;;;8.15;54.80
78755;BME280;68073;54.176;-4.554;2023-04-06T03:50:13;100783.27;;;8.18;55.12
78755;BME280;68073;54.176;-4.554;2023-04-06T03:52:38;100782.33;;;8.73;54.44
78755;BME280;68073;54.176;-4.554;2023-04-06T03:55:05;100779.01;;;8.51;54.26
78755;BME280;68073;54.176;-4.554;2023-04-06T03:57:29;100774.25;;;8.56;53.91
78755;BME280;68073;54.176;-4.554;2023-04-06T03:59:54;100779.59;;;8.11;54.20
78755;BME280;68073;54.176;-4.554;2023-04-06T04:02:19;100781.39;;;8.37;53.45
78755;BME280;68073;54.176;-4.554;2023-04-06T04:04:44;100783.04;;;8.28;53.53
78755;BME280;68073;54.176;-4.554;2023-04-06T04:07:09;100795.41;;;8.13;53.59
78755;BME280;68073;54.176;-4.554;2023-04-06T04:09:35;100796.89;;;8.00;53.64
78755;BME280;68073;54.176;-4.554;2023-04-06T04:12:00;100798.18;;;8.26;53.73
78755;BME280;68073;54.176;-4.554;2023-04-06T04:14:25;100801.76;;;8.35;53.17
78755;BME280;68073;54.176;-4.554;2023-04-06T04:16:50;100805.78;;;8.35;52.50
78755;BME280;68073;54.176;-4.554;2023-04-06T04:19:15;100814.91;;;8.17;52.63
78755;BME280;68073;54.176;-4.554;2023-04-06T04:21:45;100817.88;;;8.21;52.74
78755;BME280;68073;54.176;-4.554;2023-04-06T04:24:06;100821.46;;;8.11;53.21
78755;BME280;68073;54.176;-4.554;2023-04-06T04:26:31;100823.03;;;8.12;53.24
78755;BME280;68073;54.176;-4.554;2023-04-06T04:28:57;100827.63;;;7.86;53.50
78755;BME280;68073;54.176;-4.554;2023-04-06T04:31:22;100828.36;;;8.22;53.26
78755;BME280;68073;54.176;-4.554;2023-04-06T04:33:48;100828.72;;;8.15;53.46
78755;BME280;68073;54.176;-4.554;2023-04-06T04:36:13;100834.49;;;7.77;53.64
78755;BME280;68073;54.176;-4.554;2023-04-06T04:38:38;100840.16;;;7.88;53.91
78755;BME280;68073;54.176;-4.554;2023-04-06T04:41:03;100842.56;;;7.67;54.18
78755;BME280;68073;54.176;-4.554;2023-04-06T04:43:28;100846.10;;;7.88;54.28
78755;BME280;68073;54.176;-4.554;2023-04-06T04:45:53;100849.20;;;7.79;54.62
78755;BME280;68073;54.176;-4.554;2023-04-06T04:48:19;100852.01;;;7.92;54.38
78755;BME280;68073;54.176;-4.554;2023-04-06T04:50:45;100855.28;;;7.52;54.73
78755;BME280;68073;54.176;-4.554;2023-04-06T04:53:10;100857.95;;;7.77;54.31
78755;BME280;68073;54.176;-4.554;2023-04-06T04:55:35;100857.73;;;8.29;53.65
78755;BME280;68073;54.176;-4.554;2023-04-06T04:58:00;100855.51;;;8.12;53.56
78755;BME280;68073;54.176;-4.554;2023-04-06T05:00:25;100854.06;;;8.02;53.75
78755;BME280;68073;54.176;-4.554;2023-04-06T05:02:51;100857.50;;;8.08;53.72
78755;BME280;68073;54.176;-4.554;2023-04-06T05:05:16;100861.50;;;8.26;53.49
78755;BME280;68073;54.176;-4.554;2023-04-06T05:07:42;100862.85;;;7.73;53.54
78755;BME280;68073;54.176;-4.554;2023-04-06T05:10:08;100864.66;;;7.90;53.82
78755;BME280;68073;54.176;-4.554;2023-04-06T05:12:32;100865.83;;;7.94;53.75
78755;BME280;68073;54.176;-4.554;2023-04-06T05:14:58;100868.14;;;8.03;53.37
78755;BME280;68073;54.176;-4.554;2023-04-06T05:17:23;100869.49;;;7.96;52.98
78755;BME280;68073;54.176;-4.554;2023-04-06T05:19:49;100872.27;;;8.22;53.30
78755;BME280;68073;54.176;-4.554;2023-04-06T05:22:14;100876.86;;;8.38;52.79
78755;BME280;68073;54.176;-4.554;2023-04-06T05:24:39;100876.97;;;7.89;53.39
78755;BME280;68073;54.176;-4.554;2023-04-06T05:27:04;100880.08;;;8.16;52.92
78755;BME280;68073;54.176;-4.554;2023-04-06T05:29:30;100879.02;;;8.50;52.36
78755;BME280;68073;54.176;-4.554;2023-04-06T05:31:55;100883.84;;;8.22;53.05
78755;BME280;68073;54.176;-4.554;2023-04-06T05:34:20;100885.28;;;8.51;53.28
78755;BME280;68073;54.176;-4.554;2023-04-06T05:36:46;100884.17;;;8.18;53.21
78755;BME280;68073;54.176;-4.554;2023-04-06T05:39:11;100889.74;;;8.32;53.58
78755;BME280;68073;54.176;-4.554;2023-04-06T05:41:36;100889.96;;;8.17;53.95
78755;BME280;68073;54.176;-4.554;2023-04-06T05:44:01;100892.67;;;8.65;53.46
78755;BME280;68073;54.176;-4.554;2023-04-06T05:46:26;100889.42;;;8.33;53.59
78755;BME280;68073;54.176;-4.554;2023-04-06T05:48:51;100884.01;;;8.37;53.55
78755;BME280;68073;54.176;-4.554;2023-04-06T05:51:16;100884.16;;;8.20;53.51
78755;BME280;68073;54.176;-4.554;2023-04-06T05:53:42;100889.46;;;8.06;53.97
78755;BME280;68073;54.176;-4.554;2023-04-06T05:56:07;100889.50;;;8.17;53.60
78755;BME280;68073;54.176;-4.554;2023-04-06T05:58:32;100890.65;;;7.89;53.70
78755;BME280;68073;54.176;-4.554;2023-04-06T06:00:58;100894.59;;;7.97;53.77
78755;BME280;68073;54.176;-4.554;2023-04-06T06:03:23;100895.04;;;7.95;53.70
78755;BME280;68073;54.176;-4.554;2023-04-06T06:05:48;100899.82;;;8.14;54.34
78755;BME280;68073;54.176;-4.554;2023-04-06T06:08:13;100903.71;;;7.72;54.73
78755;BME280;68073;54.176;-4.554;2023-04-06T06:10:39;100903.61;;;8.40;53.97
78755;BME280;68073;54.176;-4.554;2023-04-06T06:13:04;100903.60;;;8.23;54.07
78755;BME280;68073;54.176;-4.554;2023-04-06T06:15:30;100910.02;;;8.19;54.44
78755;BME280;68073;54.176;-4.554;2023-04-06T06:17:55;100911.15;;;8.25;53.72
78755;BME280;68073;54.176;-4.554;2023-04-06T06:20:20;100915.08;;;8.05;54.27
78755;BME280;68073;54.176;-4.554;2023-04-06T06:22:46;100920.34;;;8.21;53.91
78755;BME280;68073;54.176;-4.554;2023-04-06T06:25:10;100923.33;;;8.54;53.79
78755;BME280;68073;54.176;-4.554;2023-04-06T06:27:36;100923.32;;;8.26;54.33
78755;BME280;68073;54.176;-4.554;2023-04-06T06:30:02;100919.13;;;7.91;54.24
78755;BME280;68073;54.176;-4.554;2023-04-06T06:32:27;100922.42;;;7.96;54.49
78755;BME280;68073;54.176;-4.554;2023-04-06T06:34:52;100925.37;;;7.67;54.87
78755;BME280;68073;54.176;-4.554;2023-04-06T06:37:17;100929.09;;;7.91;54.59
78755;BME280;68073;54.176;-4.554;2023-04-06T06:39:42;100936.62;;;8.26;54.40
78755;BME280;68073;54.176;-4.554;2023-04-06T06:42:07;100934.21;;;8.16;54.44
78755;BME280;68073;54.176;-4.554;2023-04-06T06:44:33;100937.01;;;7.88;54.53
78755;BME280;68073;54.176;-4.554;2023-04-06T06:46:58;100937.14;;;8.00;54.74
78755;BME280;68073;54.176;-4.554;2023-04-06T06:49:23;100938.25;;;8.14;54.60
78755;BME280;68073;54.176;-4.554;2023-04-06T06:51:49;100942.72;;;8.31;53.79
78755;BME280;68073;54.176;-4.554;2023-04-06T06:54:14;100943.90;;;8.36;53.98
78755;BME280;68073;54.176;-4.554;2023-04-06T06:56:39;100945.76;;;8.21;54.11
78755;BME280;68073;54.176;-4.554;2023-04-06T06:59:05;100945.22;;;8.34;53.64
78755;BME280;68073;54.176;-4.554;2023-04-06T07:01:31;100947.46;;;8.39;53.60
78755;BME280;68073;54.176;-4.554;2023-04-06T07:03:55;100947.77;;;8.48;53.52
78755;BME280;68073;54.176;-4.554;2023-04-06T07:06:20;100947.39;;;8.56;54.03
78755;BME280;68073;54.176;-4.554;2023-04-06T07:08:46;100947.52;;;8.16;54.11
78755;BME280;68073;54.176;-4.554;2023-04-06T07:11:11;100946.42;;;7.91;54.30
78755;BME280;68073;54.176;-4.554;2023-04-06T07:13:36;100947.19;;;8.42;54.00
78755;BME280;68073;54.176;-4.554;2023-04-06T07:16:02;100948.00;;;8.07;54.76
78755;BME280;68073;54.176;-4.554;2023-04-06T07:18:27;100949.33;;;7.53;55.44
78755;BME280;68073;54.176;-4.554;2023-04-06T07:20:52;100950.32;;;7.60;54.83
78755;BME280;68073;54.176;-4.554;2023-04-06T07:23:17;100955.39;;;7.77;54.80
78755;BME280;68073;54.176;-4.554;2023-04-06T07:25:42;100955.46;;;8.35;54.20
78755;BME280;68073;54.176;-4.554;2023-04-06T07:28:08;100951.88;;;8.39;53.85
78755;BME280;68073;54.176;-4.554;2023-04-06T07:30:33;100954.34;;;7.84;54.48
78755;BME280;68073;54.176;-4.554;2023-04-06T07:32:59;100957.56;;;7.97;54.28
78755;BME280;68073;54.176;-4.554;2023-04-06T07:35:25;100962.97;;;7.84;54.66
78755;BME280;68073;54.176;-4.554;2023-04-06T07:37:49;100964.01;;;7.96;54.74
78755;BME280;68073;54.176;-4.554;2023-04-06T07:40:15;100960.63;;;8.26;54.09
78755;BME280;68073;54.176;-4.554;2023-04-06T07:42:40;100962.79;;;8.23;53.60
78755;BME280;68073;54.176;-4.554;2023-04-06T07:45:07;100962.63;;;7.70;54.78
78755;BME280;68073;54.176;-4.554;2023-04-06T07:47:31;100957.96;;;8.01;54.36
78755;BME280;68073;54.176;-4.554;2023-04-06T07:49:56;100959.92;;;8.38;53.98
78755;BME280;68073;54.176;-4.554;2023-04-06T07:52:21;100960.72;;;8.25;54.25
78755;BME280;68073;54.176;-4.554;2023-04-06T07:54:47;100963.40;;;7.59;54.80
78755;BME280;68073;54.176;-4.554;2023-04-06T07:57:12;100962.07;;;8.05;54.53
78755;BME280;68073;54.176;-4.554;2023-04-06T07:59:38;100963.28;;;8.07;54.28
78755;BME280;68073;54.176;-4.554;2023-04-06T08:02:03;100966.84;;;8.02;54.17
78755;BME280;68073;54.176;-4.554;2023-04-06T08:04:28;100973.30;;;8.54;53.84
78755;BME280;68073;54.176;-4.554;2023-04-06T08:06:53;100975.25;;;8.31;53.52
78755;BME280;68073;54.176;-4.554;2023-04-06T08:09:19;100970.65;;;8.42;53.55
78755;BME280;68073;54.176;-4.554;2023-04-06T08:11:45;100969.80;;;8.37;53.40
78755;BME280;68073;54.176;-4.554;2023-04-06T08:14:10;100971.33;;;8.30;53.49
78755;BME280;68073;54.176;-4.554;2023-04-06T08:16:36;100977.25;;;8.22;54.49
78755;BME280;68073;54.176;-4.554;2023-04-06T08:19:01;100983.12;;;7.98;54.78
78755;BME280;68073;54.176;-4.554;2023-04-06T08:21:27;100979.48;;;8.31;55.22
78755;BME280;68073;54.176;-4.554;2023-04-06T08:23:52;100981.13;;;8.14;54.38
78755;BME280;68073;54.176;-4.554;2023-04-06T08:26:17;100978.58;;;8.02;55.45
78755;BME280;68073;54.176;-4.554;2023-04-06T08:28:42;100977.75;;;7.62;55.67
78755;BME280;68073;54.176;-4.554;2023-04-06T08:31:07;100981.55;;;8.55;55.30
78755;BME280;68073;54.176;-4.554;2023-04-06T08:33:33;100980.19;;;8.38;56.14
78755;BME280;68073;54.176;-4.554;2023-04-06T08:35:58;100978.49;;;8.61;54.45
78755;BME280;68073;54.176;-4.554;2023-04-06T08:38:23;100983.79;;;8.26;54.22
78755;BME280;68073;54.176;-4.554;2023-04-06T08:40:48;100985.60;;;8.07;54.79
78755;BME280;68073;54.176;-4.554;2023-04-06T08:43:14;100990.48;;;8.39;54.07
78755;BME280;68073;54.176;-4.554;2023-04-06T08:45:38;100993.20;;;8.50;53.55
78755;BME280;68073;54.176;-4.554;2023-04-06T08:48:05;100989.38;;;8.53;53.22
78755;BME280;68073;54.176;-4.554;2023-04-06T08:50:30;100993.61;;;8.61;53.34
78755;BME280;68073;54.176;-4.554;2023-04-06T08:52:55;100996.16;;;8.57;53.82
78755;BME280;68073;54.176;-4.554;2023-04-06T08:55:20;100997.91;;;8.36;54.34
78755;BME280;68073;54.176;-4.554;2023-04-06T08:57:46;100998.83;;;8.24;54.00
78755;BME280;68073;54.176;-4.554;2023-04-06T09:00:12;100995.40;;;8.71;53.13
78755;BME280;68073;54.176;-4.554;2023-04-06T09:02:38;100998.47;;;9.09;52.35
78755;BME280;68073;54.176;-4.554;2023-04-06T09:05:02;101004.16;;;8.77;52.91
78755;BME280;68073;54.176;-4.554;2023-04-06T09:07:28;101002.21;;;8.35;53.05
78755;BME280;68073;54.176;-4.554;2023-04-06T09:09:53;100999.86;;;8.93;52.83
78755;BME280;68073;54.176;-4.554;2023-04-06T09:12:25;101011.46;;;8.76;52.89
78755;BME280;68073;54.176;-4.554;2023-04-06T09:14:43;101013.89;;;8.74;52.25
78755;BME280;68073;54.176;-4.554;2023-04-06T09:17:08;101016.44;;;8.85;52.36
78755;BME280;68073;54.176;-4.554;2023-04-06T09:22:04;101021.81;;;9.38;51.67
78755;BME280;68073;54.176;-4.554;2023-04-06T09:24:25;101021.75;;;9.46;51.18
78755;BME280;68073;54.176;-4.554;2023-04-06T09:26:50;101025.61;;;9.18;50.05
78755;BME280;68073;54.176;-4.554;2023-04-06T09:29:24;101029.13;;;8.75;50.73
78755;BME280;68073;54.176;-4.554;2023-04-06T09:31:40;101034.07;;;8.94;50.67
78755;BME280;68073;54.176;-4.554;2023-04-06T09:34:05;101034.62;;;8.92;50.94
78755;BME280;68073;54.176;-4.554;2023-04-06T09:36:51;101043.42;;;8.67;51.15
78755;BME280;68073;54.176;-4.554;2023-04-06T09:38:58;101040.03;;;9.03;50.86
78755;BME280;68073;54.176;-4.554;2023-04-06T09:41:22;101041.56;;;8.97;51.44
78755;BME280;68073;54.176;-4.554;2023-04-06T09:43:46;101044.49;;;8.80;50.52
78755;BME280;68073;54.176;-4.554;2023-04-06T09:46:10;101045.56;;;9.20;50.39
78755;BME280;68073;54.176;-4.554;2023-04-06T09:48:36;101046.16;;;9.10;49.62
78755;BME280;68073;54.176;-4.554;2023-04-06T09:51:04;101044.29;;;9.39;49.88
78755;BME280;68073;54.176;-4.554;2023-04-06T09:53:27;101051.64;;;9.05;49.78
78755;BME280;68073;54.176;-4.554;2023-04-06T09:55:53;101056.93;;;8.98;49.95
78755;BME280;68073;54.176;-4.554;2023-04-06T09:58:17;101058.01;;;9.11;49.69
78755;BME280;68073;54.176;-4.554;2023-04-06T10:00:47;101055.03;;;9.20;49.48
78755;BME280;68073;54.176;-4.554;2023-04-06T10:03:12;101060.98;;;9.27;49.33
78755;BME280;68073;54.176;-4.554;2023-04-06T10:05:41;101059.72;;;9.20;49.23
78755;BME280;68073;54.176;-4.554;2023-04-06T10:08:01;101061.57;;;9.50;48.67
78755;BME280;68073;54.176;-4.554;2023-04-06T10:10:23;101057.64;;;9.42;49.00
78755;BME280;68073;54.176;-4.554;2023-04-06T10:12:49;101064.13;;;9.22;49.42
78755;BME280;68073;54.176;-4.554;2023-04-06T10:15:13;101067.53;;;9.33;49.53
78755;BME280;68073;54.176;-4.554;2023-04-06T10:17:39;101073.49;;;9.08;49.52
78755;BME280;68073;54.176;-4.554;2023-04-06T10:20:09;101069.91;;;9.59;48.66
78755;BME280;68073;54.176;-4.554;2023-04-06T10:22:34;101071.11;;;9.48;49.04
78755;BME280;68073;54.176;-4.554;2023-04-06T10:24:55;101076.45;;;9.06;49.63
78755;BME280;68073;54.176;-4.554;2023-04-06T10:27:28;101084.51;;;9.45;48.58
78755;BME280;68073;54.176;-4.554;2023-04-06T10:29:47;101080.88;;;9.32;48.26
78755;BME280;68073;54.176;-4.554;2023-04-06T10:32:11;101086.24;;;9.15;48.18
78755;BME280;68073;54.176;-4.554;2023-04-06T10:34:37;101089.40;;;9.37;47.86
78755;BME280;68073;54.176;-4.554;2023-04-06T10:37:12;101095.55;;;9.87;47.52
78755;BME280;68073;54.176;-4.554;2023-04-06T10:39:27;101099.47;;;9.72;47.57
78755;BME280;68073;54.176;-4.554;2023-04-06T10:41:53;101096.57;;;10.30;45.93
78755;BME280;68073;54.176;-4.554;2023-04-06T10:44:20;101090.04;;;10.29;46.13
78755;BME280;68073;54.176;-4.554;2023-04-06T10:46:54;101095.24;;;10.20;46.29
78755;BME280;68073;54.176;-4.554;2023-04-06T10:49:11;101096.03;;;10.42;46.07
78755;BME280;68073;54.176;-4.554;2023-04-06T10:51:38;101106.72;;;10.16;46.42
78755;BME280;68073;54.176;-4.554;2023-04-06T10:54:01;101104.74;;;10.15;47.01
78755;BME280;68073;54.176;-4.554;2023-04-06T10:56:25;101104.83;;;10.79;45.87
78755;BME280;68073;54.176;-4.554;2023-04-06T10:58:51;101113.36;;;10.92;45.59
78755;BME280;68073;54.176;-4.554;2023-04-06T11:01:15;101111.33;;;10.75;44.73
78755;BME280;68073;54.176;-4.554;2023-04-06T11:03:43;101110.18;;;11.05;44.58
78755;BME280;68073;54.176;-4.554;2023-04-06T11:06:05;101105.49;;;11.25;42.83
78755;BME280;68073;54.176;-4.554;2023-04-06T11:08:32;101112.42;;;10.79;42.86
78755;BME280;68073;54.176;-4.554;2023-04-06T11:11:06;101112.19;;;10.36;43.58
78755;BME280;68073;54.176;-4.554;2023-04-06T11:13:22;101117.81;;;10.55;44.26
78755;BME280;68073;54.176;-4.554;2023-04-06T11:15:48;101130.84;;;10.93;43.51
78755;BME280;68073;54.176;-4.554;2023-04-06T11:18:17;101127.90;;;11.44;43.29
78755;BME280;68073;54.176;-4.554;2023-04-06T11:20:39;101131.38;;;11.28;43.00
78755;BME280;68073;54.176;-4.554;2023-04-06T11:23:05;101124.11;;;11.71;42.39
78755;BME280;68073;54.176;-4.554;2023-04-06T11:25:30;101128.07;;;11.74;41.81
78755;BME280;68073;54.176;-4.554;2023-04-06T11:27:56;101133.38;;;11.56;41.87
78755;BME280;68073;54.176;-4.554;2023-04-06T11:30:22;101124.46;;;11.30;41.93
78755;BME280;68073;54.176;-4.554;2023-04-06T11:32:47;101132.34;;;11.65;41.45
78755;BME280;68073;54.176;-4.554;2023-04-06T11:35:19;101138.94;;;11.70;41.65
78755;BME280;68073;54.176;-4.554;2023-04-06T11:37:39;101143.21;;;11.44;41.36
78755;BME280;68073;54.176;-4.554;2023-04-06T11:40:09;101141.91;;;11.80;41.65
78755;BME280;68073;54.176;-4.554;2023-04-06T11:42:31;101143.31;;;11.34;41.65
78755;BME280;68073;54.176;-4.554;2023-04-06T11:44:57;101150.02;;;11.42;42.42
78755;BME280;68073;54.176;-4.554;2023-04-06T11:47:27;101155.28;;;11.19;42.21
78755;BME280;68073;54.176;-4.554;2023-04-06T11:49:48;101153.49;;;11.36;41.36
78755;BME280;68073;54.176;-4.554;2023-04-06T11:52:16;101154.25;;;11.54;41.22
78755;BME280;68073;54.176;-4.554;2023-04-06T11:54:39;101155.15;;;11.59;40.84
78755;BME280;68073;54.176;-4.554;2023-04-06T11:57:05;101157.11;;;12.12;39.78
78755;BME280;68073;54.176;-4.554;2023-04-06T11:59:30;101151.74;;;12.10;39.77
78755;BME280;68073;54.176;-4.554;2023-04-06T12:01:56;101157.24;;;12.28;39.81
78755;BME280;68073;54.176;-4.554;2023-04-06T12:04:21;101161.72;;;11.84;39.48
78755;BME280;68073;54.176;-4.554;2023-04-06T12:06:47;101160.93;;;11.92;39.34
78755;BME280;68073;54.176;-4.554;2023-04-06T12:09:12;101165.35;;;11.93;38.95
78755;BME280;68073;54.176;-4.554;2023-04-06T12:11:38;101162.16;;;12.08;38.48
78755;BME280;68073;54.176;-4.554;2023-04-06T12:14:04;101160.83;;;12.23;38.72
78755;BME280;68073;54.176;-4.554;2023-04-06T12:16:29;101159.80;;;12.48;38.33
78755;BME280;68073;54.176;-4.554;2023-04-06T12:18:54;101163.20;;;12.72;37.52
78755;BME280;68073;54.176;-4.554;2023-04-06T12:21:20;101156.85;;;12.91;37.54
78755;BME280;68073;54.176;-4.554;2023-04-06T12:23:46;101150.04;;;13.38;36.37
78755;BME280;68073;54.176;-4.554;2023-04-06T12:26:11;101153.50;;;14.20;34.93
78755;BME280;68073;54.176;-4.554;2023-04-06T12:28:37;101154.22;;;14.05;34.51
78755;BME280;68073;54.176;-4.554;2023-04-06T12:31:03;101159.29;;;14.38;34.35
78755;BME280;68073;54.176;-4.554;2023-04-06T12:33:28;101156.24;;;14.82;33.38
78755;BME280;68073;54.176;-4.554;2023-04-06T12:35:53;101158.01;;;14.94;32.61
78755;BME280;68073;54.176;-4.554;2023-04-06T12:38:19;101159.14;;;15.86;31.15